createdAt,value
2023-01-22T00:01:19.280Z,103222.44
2023-01-22T00:03:51.979Z,103222.44
2023-01-22T00:06:22.041Z,103220.84
2023-01-22T00:08:50.231Z,103208.56
2023-01-22T00:11:19.809Z,103216.47
2023-01-22T00:13:50.160Z,103205.84
2023-01-22T00:16:19.145Z,103212.03
2023-01-22T00:18:47.060Z,103212.75
2023-01-22T00:21:14.946Z,103210.16
2023-01-22T00:23:44.196Z,103208.31
2023-01-22T00:26:14.098Z,103201.44
2023-01-22T00:28:42.692Z,103204.97
2023-01-22T00:31:12.887Z,103210.28
2023-01-22T00:33:41.295Z,103207.66
2023-01-22T00:36:11.799Z,103205.88
2023-01-22T00:38:39.995Z,103195.38
2023-01-22T00:41:09.801Z,103202.50
2023-01-22T00:43:39.601Z,103196.28
2023-01-22T00:46:08.030Z,103193.59
2023-01-22T00:48:36.593Z,103187.53
2023-01-22T00:51:04.637Z,103193.81
2023-01-22T00:53:32.485Z,103191.16
2023-01-22T00:56:02.263Z,103186.75
2023-01-22T00:58:32.074Z,103188.47
2023-01-22T01:01:01.856Z,103200.72
2023-01-22T01:03:31.689Z,103195.53
2023-01-22T01:06:01.564Z,103193.75
2023-01-22T01:08:30.931Z,103191.13
2023-01-22T01:11:00.473Z,103191.97
2023-01-22T01:13:29.657Z,103192.00
2023-01-22T01:16:03.518Z,103183.25
2023-01-22T01:18:32.268Z,103184.16
2023-01-22T01:21:01.318Z,103179.66
2023-01-22T01:23:30.258Z,103179.63
2023-01-22T01:25:58.153Z,103184.88
2023-01-22T01:28:26.145Z,103172.50
2023-01-22T01:30:54.043Z,103184.88
2023-01-22T01:33:23.581Z,103182.31
2023-01-22T01:36:00.200Z,103180.56
2023-01-22T01:38:28.280Z,103176.97
2023-01-22T01:40:56.198Z,103169.13
2023-01-22T01:43:24.548Z,103174.41
2023-01-22T01:45:52.479Z,103182.34
2023-01-22T01:48:32.577Z,103179.72
2023-01-22T01:51:06.113Z,103177.09
2023-01-22T01:53:34.694Z,103179.72
2023-01-22T01:56:04.812Z,103179.63
2023-01-22T01:58:35.547Z,103188.44
2023-01-22T02:01:11.741Z,103182.25
2023-01-22T02:03:42.074Z,103172.56
2023-01-22T02:06:12.484Z,103183.09
2023-01-22T02:08:41.157Z,103179.63
2023-01-22T02:11:09.945Z,103173.50
2023-01-22T02:13:40.924Z,103171.78
2023-01-22T02:16:10.495Z,103175.25
2023-01-22T02:18:38.503Z,103179.56
2023-01-22T02:21:42.161Z,103181.38
2023-01-22T02:24:14.185Z,103186.69
2023-01-22T02:26:43.437Z,103178.72
2023-01-22T02:29:12.820Z,103184.84
2023-01-22T02:31:42.388Z,103183.09
2023-01-22T02:34:11.212Z,103170.81
2023-01-22T02:36:40.727Z,103164.69
2023-01-22T02:39:09.009Z,103157.63
2023-01-22T02:41:38.434Z,103174.34
2023-01-22T02:44:07.452Z,103162.00
2023-01-22T02:46:35.672Z,103165.53
2023-01-22T02:49:03.757Z,103169.97
2023-01-22T02:51:31.604Z,103167.38
2023-01-22T02:54:02.339Z,103173.50
2023-01-22T02:56:30.252Z,103167.34
2023-01-22T02:59:00.845Z,103177.03
2023-01-22T03:01:28.840Z,103163.84
2023-01-22T03:03:59.784Z,103166.44
2023-01-22T03:06:29.689Z,103164.69
2023-01-22T03:08:59.592Z,103157.66
2023-01-22T03:11:29.706Z,103166.50
2023-01-22T03:14:16.699Z,103162.09
2023-01-22T03:17:02.553Z,103158.63
2023-01-22T03:19:48.032Z,103154.28
2023-01-22T03:22:16.679Z,103149.88
2023-01-22T03:24:44.588Z,103160.34
2023-01-22T03:27:12.498Z,103153.25
2023-01-22T03:29:41.739Z,103152.44
2023-01-22T03:32:09.764Z,103153.38
2023-01-22T03:34:38.349Z,103162.16
2023-01-22T03:37:06.844Z,103158.56
2023-01-22T03:39:35.106Z,103149.72
2023-01-22T03:42:03.074Z,103142.69
2023-01-22T03:44:31.170Z,103155.09
2023-01-22T03:47:00.471Z,103148.97
2023-01-22T03:49:28.398Z,103157.69
2023-01-22T03:51:57.522Z,103155.09
2023-01-22T03:54:25.513Z,103148.97
2023-01-22T03:56:53.480Z,103148.06
2023-01-22T03:59:21.677Z,103150.75
2023-01-22T04:01:50.869Z,103159.47
2023-01-22T04:04:20.204Z,103153.25
2023-01-22T04:06:48.070Z,103154.13
2023-01-22T04:09:15.958Z,103149.75
2023-01-22T04:11:43.943Z,103149.81
2023-01-22T04:14:11.791Z,103159.47
2023-01-22T04:16:39.638Z,103160.34
2023-01-22T04:19:07.652Z,103159.47
2023-01-22T04:21:37.010Z,103161.31
2023-01-22T04:24:05.035Z,103153.41
2023-01-22T04:26:32.912Z,103158.63
2023-01-22T04:29:00.826Z,103165.66
2023-01-22T04:31:28.756Z,103155.13
2023-01-22T04:33:56.796Z,103152.56
2023-01-22T04:36:24.653Z,103149.91
2023-01-22T04:38:53.855Z,103144.53
2023-01-22T04:41:21.793Z,103156.88
2023-01-22T04:43:50.047Z,103143.59
2023-01-22T04:46:17.960Z,103142.69
2023-01-22T04:48:46.774Z,103135.75
2023-01-22T04:51:14.603Z,103139.31
2023-01-22T04:53:42.468Z,103135.69
2023-01-22T04:56:11.771Z,103139.22
2023-01-22T04:58:39.591Z,103133.03
2023-01-22T05:01:07.537Z,103136.53
2023-01-22T05:03:35.514Z,103137.53
2023-01-22T05:06:04.083Z,103144.53
2023-01-22T05:08:31.983Z,103146.28
2023-01-22T05:11:02.201Z,103143.66
2023-01-22T05:13:31.504Z,103131.34
2023-01-22T05:15:59.382Z,103144.53
2023-01-22T05:18:27.322Z,103140.16
2023-01-22T05:20:55.937Z,103141.13
2023-01-22T05:23:23.828Z,103135.78
2023-01-22T05:25:52.280Z,103143.69
2023-01-22T05:28:20.232Z,103133.16
2023-01-22T05:30:50.802Z,103137.59
2023-01-22T05:33:18.770Z,103134.06
2023-01-22T05:35:46.560Z,103135.84
2023-01-22T05:38:14.345Z,103140.31
2023-01-22T05:40:42.275Z,103138.50
2023-01-22T05:43:10.139Z,103135.91
2023-01-22T05:45:37.992Z,103140.25
2023-01-22T05:48:07.409Z,103143.69
2023-01-22T05:50:35.303Z,103137.53
2023-01-22T05:53:03.472Z,103141.09
2023-01-22T05:55:31.446Z,103141.97
2023-01-22T05:57:59.278Z,103146.38
2023-01-22T06:00:27.875Z,103149.03
2023-01-22T06:02:57.274Z,103152.63
2023-01-22T06:05:26.579Z,103154.41
2023-01-22T06:07:54.459Z,103148.25
2023-01-22T06:10:22.490Z,103146.47
2023-01-22T06:12:50.289Z,103145.63
2023-01-22T06:15:18.261Z,103155.28
2023-01-22T06:17:46.336Z,103155.31
2023-01-22T06:20:14.205Z,103155.25
2023-01-22T06:22:43.336Z,103154.41
2023-01-22T06:25:11.249Z,103155.31
2023-01-22T06:27:39.086Z,103152.66
2023-01-22T06:30:08.126Z,103143.84
2023-01-22T06:32:36.222Z,103149.16
2023-01-22T06:35:04.138Z,103152.66
2023-01-22T06:37:32.051Z,103150.00
2023-01-22T06:40:01.398Z,103150.91
2023-01-22T06:42:29.293Z,103157.03
2023-01-22T06:44:57.200Z,103148.28
2023-01-22T06:47:25.054Z,103148.28
2023-01-22T06:49:52.883Z,103157.94
2023-01-22T06:52:20.820Z,103158.81
2023-01-22T06:54:48.881Z,103163.22
2023-01-22T06:57:18.282Z,103168.50
2023-01-22T06:59:46.080Z,103172.03
2023-01-22T07:02:17.806Z,103177.34
2023-01-22T07:04:45.675Z,103172.09
2023-01-22T07:07:14.190Z,103171.19
2023-01-22T07:09:42.145Z,103175.59
2023-01-22T07:12:10.041Z,103186.16
2023-01-22T07:14:39.319Z,103186.06
2023-01-22T07:17:07.320Z,103194.03
2023-01-22T07:19:35.172Z,103188.78
2023-01-22T07:22:03.155Z,103180.84
2023-01-22T07:24:31.252Z,103185.25
2023-01-22T07:26:59.044Z,103172.91
2023-01-22T07:29:27.115Z,103186.09
2023-01-22T07:31:56.512Z,103184.34
2023-01-22T07:34:24.444Z,103182.66
2023-01-22T07:36:52.330Z,103193.19
2023-01-22T07:39:20.286Z,103187.91
2023-01-22T07:41:48.271Z,103190.63
2023-01-22T07:44:16.391Z,103206.38
2023-01-22T07:46:44.382Z,103203.66
2023-01-22T07:49:13.683Z,103201.09
2023-01-22T07:51:41.585Z,103197.56
2023-01-22T07:54:09.545Z,103205.50
2023-01-22T07:56:37.586Z,103204.66
2023-01-22T07:59:06.017Z,103208.16
2023-01-22T08:01:33.961Z,103218.75
2023-01-22T08:04:01.809Z,103214.34
2023-01-22T08:06:30.950Z,103220.56
2023-01-22T08:08:59.429Z,103218.81
2023-01-22T08:11:27.421Z,103222.31
2023-01-22T08:13:55.548Z,103224.94
2023-01-22T08:16:23.759Z,103228.47
2023-01-22T08:18:51.656Z,103238.19
2023-01-22T08:21:19.646Z,103239.94
2023-01-22T08:23:49.505Z,103244.25
2023-01-22T08:26:17.514Z,103234.56
2023-01-22T08:28:45.511Z,103249.56
2023-01-22T08:31:26.341Z,103239.94
2023-01-22T08:33:55.572Z,103244.38
2023-01-22T08:36:23.526Z,103250.53
2023-01-22T08:38:52.986Z,103245.22
2023-01-22T08:41:21.302Z,103246.09
2023-01-22T08:43:50.003Z,103249.63
2023-01-22T08:46:18.241Z,103247.88
2023-01-22T08:48:46.268Z,103248.72
2023-01-22T08:51:14.645Z,103244.34
2023-01-22T08:53:42.786Z,103254.00
2023-01-22T08:56:12.525Z,103254.94
2023-01-22T08:58:40.584Z,103259.34
2023-01-22T09:01:11.047Z,103259.31
2023-01-22T09:03:39.007Z,103254.94
2023-01-22T09:06:07.274Z,103254.06
2023-01-22T09:08:35.411Z,103255.78
2023-01-22T09:11:05.341Z,103250.47
2023-01-22T09:13:34.870Z,103260.22
2023-01-22T09:16:03.040Z,103257.56
2023-01-22T09:18:30.996Z,103252.31
2023-01-22T09:20:59.787Z,103264.66
2023-01-22T09:23:27.761Z,103251.44
2023-01-22T09:25:55.546Z,103254.97
2023-01-22T09:28:23.480Z,103252.34
2023-01-22T09:30:52.670Z,103254.06
2023-01-22T09:33:20.516Z,103244.41
2023-01-22T09:35:48.414Z,103250.59
2023-01-22T09:38:16.518Z,103247.06
2023-01-22T09:40:46.710Z,103249.66
2023-01-22T09:43:26.552Z,103247.06
2023-01-22T09:45:57.954Z,103250.59
2023-01-22T09:48:33.849Z,103246.22
2023-01-22T09:51:02.176Z,103252.38
2023-01-22T09:53:31.585Z,103256.81
2023-01-22T09:56:00.127Z,103246.25
2023-01-22T09:58:31.708Z,103250.66
2023-01-22T10:01:04.648Z,103251.53
2023-01-22T10:03:35.718Z,103248.91
2023-01-22T10:06:08.429Z,103251.56
2023-01-22T10:08:41.179Z,103254.16
2023-01-22T10:11:11.085Z,103253.34
2023-01-22T10:13:40.833Z,103251.56
2023-01-22T10:16:13.159Z,103251.56
2023-01-22T10:18:44.923Z,103259.47
2023-01-22T10:21:19.879Z,103253.28
2023-01-22T10:23:50.157Z,103255.09
2023-01-22T10:26:25.179Z,103251.59
2023-01-22T10:28:56.476Z,103245.41
2023-01-22T10:31:28.850Z,103248.94
2023-01-22T10:33:58.850Z,103236.59
2023-01-22T10:36:27.889Z,103243.63
2023-01-22T10:39:12.416Z,103240.13
2023-01-22T10:41:41.063Z,103236.59
2023-01-22T10:44:19.895Z,103234.81
2023-01-22T10:46:56.196Z,103232.19
2023-01-22T10:49:28.909Z,103229.53
2023-01-22T10:52:01.417Z,103232.19
2023-01-22T10:54:33.508Z,103236.56
2023-01-22T10:57:31.735Z,103228.66
2023-01-22T11:00:24.718Z,103235.69
2023-01-22T11:02:54.405Z,103225.13
2023-01-22T11:05:24.750Z,103228.63
2023-01-22T11:07:55.468Z,103226.03
2023-01-22T11:10:26.985Z,103213.66
2023-01-22T11:12:59.703Z,103220.72
2023-01-22T11:15:37.938Z,103221.63
2023-01-22T11:18:08.807Z,103217.19
2023-01-22T11:20:46.940Z,103214.53
2023-01-22T11:23:20.488Z,103219.84
2023-01-22T11:25:57.803Z,103211.91
2023-01-22T11:28:41.670Z,103211.88
2023-01-22T11:31:27.113Z,103217.16
2023-01-22T11:34:20.682Z,103215.41
2023-01-22T11:36:56.404Z,103216.31
2023-01-22T11:39:39.545Z,103217.13
2023-01-22T11:42:22.973Z,103208.38
2023-01-22T11:45:03.771Z,103208.34
2023-01-22T11:47:50.162Z,103210.97
2023-01-22T11:50:28.389Z,103197.75
2023-01-22T11:53:22.517Z,103192.44
2023-01-22T11:56:13.342Z,103203.03
2023-01-22T11:58:51.019Z,103198.59
2023-01-22T12:01:29.234Z,103196.00
2023-01-22T12:04:28.630Z,103195.06
2023-01-22T12:07:22.800Z,103200.41
2023-01-22T12:10:02.611Z,103198.59
2023-01-22T12:12:41.931Z,103198.53
2023-01-22T12:15:33.833Z,103200.28
2023-01-22T12:18:17.910Z,103203.78
2023-01-22T12:21:09.601Z,103203.75
2023-01-22T12:23:43.392Z,103206.41
2023-01-22T12:26:15.869Z,103204.56
2023-01-22T12:28:50.254Z,103200.13
2023-01-22T12:31:24.560Z,103194.88
2023-01-22T12:33:52.802Z,103188.69
2023-01-22T12:36:24.085Z,103197.50
2023-01-22T12:38:55.914Z,103193.94
2023-01-22T12:41:45.517Z,103188.69
2023-01-22T12:44:28.957Z,103188.69
2023-01-22T12:47:06.085Z,103187.88
2023-01-22T12:49:33.870Z,103189.56
2023-01-22T12:52:01.695Z,103189.50
2023-01-22T12:54:33.796Z,103195.75
2023-01-22T12:57:13.858Z,103200.06
2023-01-22T12:59:45.704Z,103195.75
2023-01-22T13:02:35.769Z,103195.66
2023-01-22T13:05:41.839Z,103199.19
2023-01-22T13:08:35.490Z,103200.13
2023-01-22T13:11:06.836Z,103199.19
2023-01-22T13:13:39.906Z,103201.84
2023-01-22T13:16:21.031Z,103193.88
2023-01-22T13:18:51.312Z,103197.41
2023-01-22T13:21:25.879Z,103191.19
2023-01-22T13:23:59.830Z,103199.16
2023-01-22T13:26:31.732Z,103198.28
2023-01-22T13:29:01.687Z,103204.50
2023-01-22T13:31:29.925Z,103203.63
2023-01-22T13:34:05.183Z,103201.03
2023-01-22T13:36:33.007Z,103199.22
2023-01-22T13:39:03.637Z,103199.19
2023-01-22T13:41:36.135Z,103206.28
2023-01-22T13:44:05.244Z,103200.97
2023-01-22T13:46:37.254Z,103209.78
2023-01-22T13:49:08.077Z,103213.31
2023-01-22T13:51:40.207Z,103213.34
2023-01-22T13:54:08.777Z,103215.16
2023-01-22T13:56:38.683Z,103219.53
2023-01-22T13:59:16.594Z,103215.06
2023-01-22T14:01:44.639Z,103219.47
2023-01-22T14:04:34.466Z,103220.41
2023-01-22T14:07:02.718Z,103222.22
2023-01-22T14:09:32.833Z,103223.06
2023-01-22T14:12:13.687Z,103225.66
2023-01-22T14:14:43.314Z,103224.78
2023-01-22T14:17:21.676Z,103228.38
2023-01-22T14:19:49.576Z,103227.50
2023-01-22T14:22:17.604Z,103230.97
2023-01-22T14:24:45.607Z,103240.78
2023-01-22T14:27:15.053Z,103240.75
2023-01-22T14:29:42.942Z,103240.72
2023-01-22T14:32:10.923Z,103253.09
2023-01-22T14:34:38.862Z,103245.16
2023-01-22T14:37:06.898Z,103249.56
2023-01-22T14:39:35.097Z,103238.06
2023-01-22T14:42:03.381Z,103261.06
2023-01-22T14:44:33.698Z,103256.69
2023-01-22T14:47:01.913Z,103262.88
2023-01-22T14:49:29.736Z,103265.50
2023-01-22T14:51:57.756Z,103268.09
2023-01-22T14:54:26.097Z,103262.81
2023-01-22T14:56:54.262Z,103264.63
2023-01-22T14:59:22.100Z,103261.03
2023-01-22T15:01:51.526Z,103256.69
2023-01-22T15:04:19.336Z,103267.31
2023-01-22T15:06:47.170Z,103275.28
2023-01-22T15:09:15.110Z,103275.28
2023-01-22T15:11:42.925Z,103280.56
2023-01-22T15:14:10.804Z,103280.59
2023-01-22T15:16:40.317Z,103280.59
2023-01-22T15:19:09.608Z,103285.88
2023-01-22T15:21:37.890Z,103285.81
2023-01-22T15:24:06.615Z,103287.63
2023-01-22T15:26:36.708Z,103298.22
2023-01-22T15:29:06.274Z,103294.69
2023-01-22T15:31:34.342Z,103286.72
2023-01-22T15:34:03.344Z,103292.03
2023-01-22T15:36:33.915Z,103294.72
2023-01-22T15:39:01.739Z,103292.09
2023-01-22T15:41:31.595Z,103302.69
2023-01-22T15:44:02.475Z,103301.78
2023-01-22T15:46:32.729Z,103304.44
2023-01-22T15:49:01.325Z,103314.13
2023-01-22T15:51:30.246Z,103312.38
2023-01-22T15:54:01.205Z,103322.09
2023-01-22T15:56:31.645Z,103320.28
2023-01-22T15:59:00.169Z,103323.81
2023-01-22T16:01:29.290Z,103322.03
2023-01-22T16:03:57.554Z,103322.94
2023-01-22T16:06:26.791Z,103324.69
2023-01-22T16:08:57.629Z,103330.00
2023-01-22T16:11:28.723Z,103331.78
2023-01-22T16:13:56.962Z,103324.69
2023-01-22T16:16:26.999Z,103328.25
2023-01-22T16:18:55.370Z,103337.09
2023-01-22T16:21:24.235Z,103340.63
2023-01-22T16:23:55.000Z,103331.78
2023-01-22T16:26:25.141Z,103333.53
2023-01-22T16:28:55.757Z,103333.56
2023-01-22T16:31:25.235Z,103330.88
2023-01-22T16:33:55.861Z,103340.63
2023-01-22T16:36:25.163Z,103336.19
2023-01-22T16:38:53.650Z,103344.19
2023-01-22T16:41:26.074Z,103338.88
2023-01-22T16:43:57.789Z,103342.38
2023-01-22T16:46:27.357Z,103332.69
2023-01-22T16:49:02.729Z,103338.00
2023-01-22T16:51:35.568Z,103332.66
2023-01-22T16:54:03.780Z,103336.22
2023-01-22T16:56:32.446Z,103332.69
2023-01-22T16:59:02.290Z,103344.16
2023-01-22T17:01:31.265Z,103343.28
2023-01-22T17:04:00.417Z,103346.81
2023-01-22T17:06:32.571Z,103345.94
2023-01-22T17:09:01.143Z,103345.94
2023-01-22T17:11:28.995Z,103351.22
2023-01-22T17:13:56.920Z,103343.28
2023-01-22T17:16:26.451Z,103347.72
2023-01-22T17:18:55.499Z,103351.25
2023-01-22T17:21:24.092Z,103350.34
2023-01-22T17:23:51.923Z,103349.44
2023-01-22T17:26:19.794Z,103347.69
2023-01-22T17:28:47.756Z,103347.69
2023-01-22T17:31:18.948Z,103347.69
2023-01-22T17:33:48.630Z,103348.59
2023-01-22T17:36:18.897Z,103359.19
2023-01-22T17:38:46.953Z,103362.72
2023-01-22T17:41:17.209Z,103359.19
2023-01-22T17:43:46.551Z,103360.97
2023-01-22T17:46:15.881Z,103363.59
2023-01-22T17:48:44.836Z,103366.22
2023-01-22T17:51:17.212Z,103362.72
2023-01-22T17:53:46.529Z,103365.38
2023-01-22T17:56:16.460Z,103373.31
2023-01-22T17:58:45.941Z,103368.88
2023-01-22T18:01:16.168Z,103372.41
2023-01-22T18:03:44.319Z,103371.50
2023-01-22T18:06:13.996Z,103371.50
2023-01-22T18:08:42.500Z,103378.56
2023-01-22T18:11:12.034Z,103378.59
2023-01-22T18:13:40.325Z,103378.59
2023-01-22T18:16:10.107Z,103375.97
2023-01-22T18:18:38.099Z,103383.91
2023-01-22T18:21:08.033Z,103392.72
2023-01-22T18:23:37.227Z,103388.34
2023-01-22T18:26:06.674Z,103386.56
2023-01-22T18:28:35.124Z,103390.97
2023-01-22T18:31:08.172Z,103384.78
2023-01-22T18:33:37.677Z,103390.06
2023-01-22T18:36:08.490Z,103388.31
2023-01-22T18:38:38.331Z,103390.97
2023-01-22T18:41:07.076Z,103398.03
2023-01-22T18:43:35.162Z,103398.00
2023-01-22T18:46:04.838Z,103396.25
2023-01-22T18:48:32.743Z,103398.00
2023-01-22T18:51:00.679Z,103405.09
2023-01-22T18:53:29.724Z,103400.66
2023-01-22T18:56:01.281Z,103406.88
2023-01-22T18:58:31.156Z,103412.16
2023-01-22T19:01:00.622Z,103416.56
2023-01-22T19:03:28.533Z,103413.88
2023-01-22T19:05:57.146Z,103420.94
2023-01-22T19:08:24.990Z,103413.91
2023-01-22T19:10:53.012Z,103416.56
2023-01-22T19:13:22.450Z,103423.63
2023-01-22T19:15:50.341Z,103425.38
2023-01-22T19:18:18.204Z,103426.28
2023-01-22T19:20:46.169Z,103431.56
2023-01-22T19:23:13.974Z,103432.44
2023-01-22T19:25:41.795Z,103435.97
2023-01-22T19:28:09.785Z,103431.56
2023-01-22T19:30:38.964Z,103434.22
2023-01-22T19:33:06.876Z,103433.31
2023-01-22T19:35:34.778Z,103443.03
2023-01-22T19:38:02.581Z,103443.94
2023-01-22T19:40:30.384Z,103444.81
2023-01-22T19:42:58.312Z,103443.91
2023-01-22T19:45:32.199Z,103436.84
2023-01-22T19:48:02.022Z,103445.69
2023-01-22T19:50:29.848Z,103447.44
2023-01-22T19:52:57.699Z,103447.47
2023-01-22T19:55:26.538Z,103451.00
2023-01-22T19:57:55.183Z,103464.25
2023-01-22T20:00:23.598Z,103470.38
2023-01-22T20:02:51.574Z,103469.53
2023-01-22T20:05:21.448Z,103477.44
2023-01-22T20:07:49.504Z,103481.81
2023-01-22T20:10:19.266Z,103482.75
2023-01-22T20:12:50.684Z,103477.47
2023-01-22T20:15:19.350Z,103481.88
2023-01-22T20:17:47.364Z,103483.63
2023-01-22T20:20:15.185Z,103489.78
2023-01-22T20:22:44.604Z,103488.94
2023-01-22T20:25:13.857Z,103495.97
2023-01-22T20:27:41.673Z,103501.28
2023-01-22T20:30:10.790Z,103505.69
2023-01-22T20:32:38.688Z,103509.16
2023-01-22T20:35:07.225Z,103515.34
2023-01-22T20:37:35.212Z,103507.41
2023-01-22T20:40:04.798Z,103496.84
2023-01-22T20:42:32.809Z,103499.50
2023-01-22T20:45:00.669Z,103503.03
2023-01-22T20:47:28.511Z,103502.16
2023-01-22T20:49:56.316Z,103503.91
2023-01-22T20:52:24.266Z,103510.03
2023-01-22T20:55:01.552Z,103507.44
2023-01-22T20:57:32.328Z,103510.06
2023-01-22T21:00:00.134Z,103509.25
2023-01-22T21:02:28.039Z,103509.22
2023-01-22T21:04:56.587Z,103502.16
2023-01-22T21:07:24.370Z,103500.41
2023-01-22T21:09:52.305Z,103499.47
2023-01-22T21:12:20.360Z,103506.53
2023-01-22T21:14:53.731Z,103498.59
2023-01-22T21:17:22.177Z,103500.38
2023-01-22T21:19:51.595Z,103506.56
2023-01-22T21:22:19.477Z,103505.69
2023-01-22T21:24:47.452Z,103495.09
2023-01-22T21:27:15.275Z,103502.16
2023-01-22T21:29:43.101Z,103502.16
2023-01-22T21:32:12.440Z,103497.75
2023-01-22T21:34:40.586Z,103500.41
2023-01-22T21:37:08.433Z,103499.50
2023-01-22T21:39:38.666Z,103503.03
2023-01-22T21:42:23.802Z,103504.84
2023-01-22T21:45:09.057Z,103494.22
2023-01-22T21:47:38.260Z,103501.28
2023-01-22T21:50:06.750Z,103492.47
2023-01-22T21:52:34.757Z,103499.53
2023-01-22T21:55:02.517Z,103497.72
2023-01-22T21:57:30.411Z,103504.81
2023-01-22T21:59:58.357Z,103508.34
2023-01-22T22:02:27.194Z,103510.09
2023-01-22T22:04:56.683Z,103510.94
2023-01-22T22:07:24.501Z,103515.31
2023-01-22T22:09:52.314Z,103515.38
2023-01-22T22:12:20.144Z,103523.28
2023-01-22T22:14:48.083Z,103528.59
2023-01-22T22:17:15.904Z,103530.38
2023-01-22T22:19:43.749Z,103530.41
2023-01-22T22:22:13.047Z,103524.22
2023-01-22T22:24:41.013Z,103527.75
2023-01-22T22:27:08.864Z,103530.38
2023-01-22T22:29:36.820Z,103531.25
2023-01-22T22:32:04.762Z,103530.38
2023-01-22T22:34:35.083Z,103544.50
2023-01-22T22:37:03.014Z,103536.56
2023-01-22T22:39:32.464Z,103535.66
2023-01-22T22:42:00.315Z,103539.19
2023-01-22T22:44:28.307Z,103542.72
2023-01-22T22:46:56.330Z,103535.63
2023-01-22T22:49:24.324Z,103544.47
2023-01-22T22:51:52.417Z,103538.28
2023-01-22T22:54:21.244Z,103546.25
2023-01-22T22:56:51.249Z,103537.38
2023-01-22T22:59:20.909Z,103540.97
2023-01-22T23:01:49.412Z,103537.44
2023-01-22T23:04:17.737Z,103538.28
2023-01-22T23:06:46.802Z,103538.25
2023-01-22T23:09:17.343Z,103534.75
2023-01-22T23:11:47.414Z,103530.38
2023-01-22T23:14:16.593Z,103536.53
2023-01-22T23:16:45.166Z,103535.66
2023-01-22T23:19:15.935Z,103536.56
2023-01-22T23:21:44.444Z,103543.59
2023-01-22T23:24:14.431Z,103539.19
2023-01-22T23:26:43.878Z,103533.91
2023-01-22T23:29:13.402Z,103525.97
2023-01-22T23:31:42.887Z,103534.78
2023-01-22T23:34:13.548Z,103527.72
2023-01-22T23:36:44.279Z,103534.78
2023-01-22T23:39:13.019Z,103533.00
2023-01-22T23:41:40.849Z,103528.59
2023-01-22T23:44:09.355Z,103527.66
2023-01-22T23:46:37.439Z,103526.81
2023-01-22T23:49:06.753Z,103520.66
2023-01-22T23:51:34.740Z,103525.03
2023-01-22T23:54:02.855Z,103521.53
2023-01-22T23:56:31.830Z,103528.56
2023-01-22T23:59:00.593Z,103529.44
